Time;durP1;ratioP1;P1;durP2;ratioP2;P2;SDS_P1;SDS_P2;PMS_P1;PMS_P2;Temp;Humidity;BMP_temperature;BMP_pressure;BME280_temperature;BME280_humidity;BME280_pressure;Samples;Min_cycle;Max_cycle;Signal;HPM_P1;HPM_P2
2022/10/18 00:00:05;;;;;;;37.60;25.42;;;;;;;-148.88;100.00;76106.28;4976408;28;20418;-88
2022/10/18 00:02:30;;;;;;;38.75;25.50;;;;;;;-148.88;100.00;76114.41;4990414;28;20023;-88
2022/10/18 00:04:56;;;;;;;38.70;27.13;;;;;;;-148.88;100.00;76114.41;4977875;28;20034;-88
2022/10/18 00:07:21;;;;;;;42.33;27.80;;;;;;;-148.88;100.00;76118.47;4977028;28;20027;-87
2022/10/18 00:09:46;;;;;;;37.78;26.55;;;;;;;-148.88;100.00;76130.69;4975791;28;20400;-87
2022/10/18 00:12:12;;;;;;;40.13;27.13;;;;;;;-148.88;100.00;76126.59;4976945;28;20027;-88
2022/10/18 00:14:37;;;;;;;38.35;25.70;;;;;;;-148.88;100.00;76134.72;4977160;28;20085;-88
2022/10/18 00:17:02;;;;;;;39.00;26.65;;;;;;;-148.88;100.00;76130.69;4975977;28;20030;-88
2022/10/18 00:19:28;;;;;;;40.35;26.75;;;;;;;-148.88;100.00;76126.59;4976227;28;20121;-88
2022/10/18 00:21:53;;;;;;;41.70;27.02;;;;;;;-148.88;100.00;76130.69;4974822;28;20485;-88
2022/10/18 00:24:19;;;;;;;39.63;27.30;;;;;;;-148.88;100.00;76128.66;4975631;28;20030;-88
2022/10/18 00:26:44;;;;;;;37.70;26.60;;;;;;;-148.88;100.00;76138.81;4975636;28;20054;-88
2022/10/18 00:29:12;;;;;;;40.30;27.67;;;;;;;-148.88;100.00;76138.81;4977145;28;20027;-88
2022/10/18 00:31:42;;;;;;;41.03;26.52;;;;;;;-148.88;100.00;76138.81;4975799;28;20037;-87
2022/10/18 00:34:15;;;;;;;41.20;27.50;;;;;;;-148.88;100.00;76142.88;4975413;28;20070;-87
2022/10/18 00:36:42;;;;;;;41.58;27.38;;;;;;;-148.88;100.00;76146.94;4975805;28;20031;-87
2022/10/18 00:39:11;;;;;;;40.72;28.45;;;;;;;-148.88;100.00;76146.94;4975391;28;20157;-89
2022/10/18 00:41:37;;;;;;;39.33;27.00;;;;;;;-148.88;100.00;76142.88;4976712;28;20026;-88
2022/10/18 00:44:26;;;;;;;39.83;26.83;;;;;;;-148.88;100.00;76136.78;4975026;28;20054;-87
2022/10/18 00:46:58;;;;;;;38.50;26.33;;;;;;;-148.88;100.00;76134.72;4976435;28;20035;-88
2022/10/18 00:49:32;;;;;;;42.95;27.55;;;;;;;-148.88;100.00;76136.78;4976409;28;20423;-88
2022/10/18 00:52:02;;;;;;;38.47;27.13;;;;;;;-148.88;100.00;76130.69;4976580;28;20030;-88
2022/10/18 00:54:29;;;;;;;39.92;27.98;;;;;;;-148.88;100.00;76128.66;4975270;28;20090;-87
2022/10/18 00:56:55;;;;;;;38.55;26.98;;;;;;;-148.88;100.00;76130.69;4976951;28;20030;-87
2022/10/18 00:59:22;;;;;;;39.08;26.67;;;;;;;-148.88;100.00;76128.66;4974825;28;20027;-87
2022/10/18 01:01:47;;;;;;;40.42;28.10;;;;;;;-148.88;100.00;76126.59;4974805;28;20029;-87
2022/10/18 01:04:14;;;;;;;44.47;29.23;;;;;;;-148.88;100.00;76122.56;4990900;28;20026;-88
2022/10/18 01:06:50;;;;;;;42.10;28.80;;;;;;;-148.88;100.00;76116.44;4976268;28;20025;-88
2022/10/18 01:09:25;;;;;;;43.53;29.33;;;;;;;-148.88;100.00;76118.47;4975038;28;20110;-88
2022/10/18 01:12:01;;;;;;;46.25;29.17;;;;;;;-148.88;100.00;76120.53;4976054;28;20553;-87
2022/10/18 01:14:35;;;;;;;45.20;29.90;;;;;;;-148.88;100.00;76118.47;4974757;28;20034;-87
2022/10/18 01:17:19;;;;;;;39.88;27.17;;;;;;;-148.88;100.00;76112.41;4976104;28;20027;-88
2022/10/18 01:20:40;;;;;;;43.30;27.73;;;;;;;-148.88;100.00;76110.34;4975904;28;20440;-88
2022/10/18 01:23:14;;;;;;;41.65;28.38;;;;;;;-148.88;100.00;76110.34;4892002;29;20116;-87
2022/10/18 01:25:52;;;;;;;43.85;28.77;;;;;;;-148.88;100.00;76114.41;4964429;28;20405;-87
2022/10/18 01:28:28;;;;;;;44.50;28.42;;;;;;;-148.88;100.00;76116.44;4974539;28;20061;-88
2022/10/18 01:30:58;;;;;;;43.60;28.50;;;;;;;-148.88;100.00;76114.41;4974491;28;20077;-87
2022/10/18 01:33:41;;;;;;;43.40;29.00;;;;;;;-148.88;100.00;76102.22;4974351;28;20031;-87
2022/10/18 01:36:16;;;;;;;42.45;27.92;;;;;;;-148.88;100.00;76108.31;4975617;28;20031;-87
2022/10/18 01:38:43;;;;;;;41.50;28.25;;;;;;;-148.88;100.00;76106.28;4975477;28;20034;-88
2022/10/18 01:41:12;;;;;;;47.30;29.67;;;;;;;-148.88;100.00;76090.03;4975155;28;20027;-87
2022/10/18 01:43:39;;;;;;;46.85;29.90;;;;;;;-148.88;100.00;76098.16;4974117;28;20019;-88
2022/10/18 01:46:06;;;;;;;51.05;31.02;;;;;;;-148.88;100.00;76104.25;4973966;28;20026;-88
2022/10/18 01:48:32;;;;;;;42.78;28.88;;;;;;;-148.88;100.00;76096.13;4975321;28;20077;-87
2022/10/18 01:50:57;;;;;;;44.05;29.55;;;;;;;-148.88;100.00;76098.16;4973985;28;20054;-87
2022/10/18 01:53:26;;;;;;;42.13;27.88;;;;;;;-148.88;100.00;76094.09;4974645;28;20069;-88
2022/10/18 01:56:01;;;;;;;49.13;29.88;;;;;;;-148.88;100.00;76096.13;4975118;28;20065;-88
2022/10/18 01:58:33;;;;;;;47.78;30.95;;;;;;;-148.88;100.00;76094.09;4974079;28;20081;-87
2022/10/18 02:01:10;;;;;;;46.50;29.33;;;;;;;-148.88;100.00;76102.22;4975444;28;20485;-88
2022/10/18 02:03:43;;;;;;;41.22;27.58;;;;;;;-148.88;100.00;76102.22;4974081;28;20489;-88
2022/10/18 02:06:34;;;;;;;41.35;28.30;;;;;;;-148.88;100.00;76110.34;4974847;28;20030;-87
2022/10/18 02:09:08;;;;;;;43.17;27.60;;;;;;;-148.88;100.00;76104.25;4974168;28;20022;-87
2022/10/18 02:11:34;;;;;;;;;;;;;;;-148.88;100.00;76100.19;4974645;28;20517;-87
2022/10/18 02:14:07;;;;;;;39.85;26.90;;;;;;;-148.88;100.00;76094.09;4974136;28;20001;-88
2022/10/18 02:16:49;;;;;;;43.40;27.73;;;;;;;-148.88;100.00;76096.13;4974260;28;20042;-87
2022/10/18 02:19:29;;;;;;;40.03;26.55;;;;;;;-148.88;100.00;76102.22;4977863;28;20057;-88
2022/10/18 02:21:56;;;;;;;41.95;28.15;;;;;;;-148.88;100.00;76100.19;4975636;28;20034;-85
2022/10/18 02:24:29;;;;;;;42.28;27.55;;;;;;;-148.88;100.00;76098.16;4975531;28;20034;-84
2022/10/18 02:26:54;;;;;;;43.85;28.00;;;;;;;-148.88;100.00;76108.31;4975384;28;20074;-83
2022/10/18 02:29:20;;;;;;;42.03;27.73;;;;;;;-148.88;100.00;76106.28;4976690;28;20437;-83
2022/10/18 02:31:48;;;;;;;47.05;27.85;;;;;;;-148.88;100.00;76108.31;4973627;28;20027;-85
2022/10/18 02:34:19;;;;;;;45.90;29.52;;;;;;;-148.88;100.00;76110.34;4973771;28;20113;-85
2022/10/18 02:36:59;;;;;;;48.38;30.25;;;;;;;-148.88;100.00;76144.91;4974729;28;20027;-84
2022/10/18 02:39:32;;;;;;;54.05;30.80;;;;;;;-148.88;100.00;76134.72;4973445;28;20505;-84
2022/10/18 02:41:58;;;;;;;51.75;33.70;;;;;;;-148.88;100.00;76130.69;4974595;28;20030;-84
2022/10/18 02:44:24;;;;;;;52.58;31.42;;;;;;;-148.88;100.00;76130.69;4974688;28;20069;-83
2022/10/18 02:46:50;;;;;;;51.20;31.50;;;;;;;-148.88;100.00;76134.72;4979270;28;20081;-83
2022/10/18 02:49:16;;;;;;;51.40;32.30;;;;;;;-148.88;100.00;76130.69;4977978;28;20098;-85
2022/10/18 02:51:42;;;;;;;57.00;33.80;;;;;;;-148.88;100.00;76134.72;4987073;28;20035;-84
2022/10/18 02:54:07;;;;;;;52.33;31.10;;;;;;;-148.88;100.00;76134.72;4978228;28;20513;-85
2022/10/18 02:56:33;;;;;;;52.50;30.60;;;;;;;-148.88;100.00;76122.56;4977649;28;20031;-86
2022/10/18 02:58:58;;;;;;;49.58;30.98;;;;;;;-148.88;100.00;76124.56;4977477;28;20027;-86
2022/10/18 03:01:24;;;;;;;47.60;30.02;;;;;;;-148.88;100.00;76118.47;4978872;28;20027;-84
2022/10/18 03:03:49;;;;;;;49.90;30.83;;;;;;;-148.88;100.00;76122.56;4977230;28;20023;-85
2022/10/18 03:06:14;;;;;;;53.10;32.45;;;;;;;-148.88;100.00;76120.53;4978703;28;20022;-85
2022/10/18 03:08:40;;;;;;;49.13;30.10;;;;;;;-148.88;100.00;76114.41;4977698;28;20131;-85
2022/10/18 03:11:06;;;;;;;47.42;29.70;;;;;;;-148.88;100.00;76122.56;4977473;28;20018;-86
2022/10/18 03:13:32;;;;;;;48.90;30.15;;;;;;;-148.88;100.00;76118.47;4978201;28;20031;-85
2022/10/18 03:15:58;;;;;;;49.72;31.15;;;;;;;-148.88;100.00;76122.56;4977342;28;20118;-85
2022/10/18 03:18:24;;;;;;;52.58;31.27;;;;;;;-148.88;100.00;76130.69;4977161;28;20114;-83
2022/10/18 03:20:49;;;;;;;54.72;31.67;;;;;;;-148.88;100.00;76126.59;4978352;28;20031;-85
2022/10/18 03:23:14;;;;;;;54.00;31.13;;;;;;;-148.88;100.00;76122.56;4978274;28;20030;-84
2022/10/18 03:25:39;;;;;;;48.58;31.20;;;;;;;-148.88;100.00;76126.59;4978024;28;20061;-86
2022/10/18 03:28:05;;;;;;;48.45;30.65;;;;;;;-148.88;100.00;76126.59;4978357;28;20440;-84
2022/10/18 03:30:30;;;;;;;46.92;29.98;;;;;;;-148.88;100.00;76130.69;4976862;28;20050;-86
2022/10/18 03:32:55;;;;;;;48.20;31.05;;;;;;;-148.88;100.00;76134.72;4978167;28;20027;-86
2022/10/18 03:35:21;;;;;;;46.08;29.50;;;;;;;-148.88;100.00;76138.81;4978560;28;20477;-83
2022/10/18 03:37:47;;;;;;;46.72;30.20;;;;;;;-148.88;100.00;76138.81;4977920;28;20022;-84
2022/10/18 03:40:12;;;;;;;45.90;29.83;;;;;;;-148.88;100.00;76146.94;4979111;28;20054;-84
2022/10/18 03:42:37;;;;;;;45.88;29.70;;;;;;;-148.88;100.00;76155.06;4977354;28;20018;-84
2022/10/18 03:45:03;;;;;;;48.63;30.40;;;;;;;-148.88;100.00;76155.06;4978582;28;20038;-85
2022/10/18 03:47:29;;;;;;;52.28;31.50;;;;;;;-148.88;100.00;76151.00;4977071;28;20023;-83
2022/10/18 03:49:54;;;;;;;55.88;33.65;;;;;;;-148.88;100.00;76146.94;4978693;28;20117;-85
2022/10/18 03:52:19;;;;;;;54.50;34.28;;;;;;;-148.88;100.00;76138.81;4978533;28;20098;-84
2022/10/18 03:54:45;;;;;;;54.03;32.58;;;;;;;-148.88;100.00;76136.78;4978995;28;20042;-83
2022/10/18 03:57:10;;;;;;;55.35;33.58;;;;;;;-148.88;100.00;76130.69;4977474;28;20023;-84
2022/10/18 03:59:35;;;;;;;62.88;37.05;;;;;;;-148.88;100.00;76128.66;4977306;28;20033;-83
2022/10/18 04:02:01;;;;;;;63.70;38.08;;;;;;;-148.88;100.00;76118.47;4977324;28;20397;-84
2022/10/18 04:04:26;;;;;;;66.28;37.30;;;;;;;-148.88;100.00;76118.47;4977288;28;20401;-84
2022/10/18 04:06:51;;;;;;;60.65;38.30;;;;;;;-148.88;100.00;76124.56;4977999;28;20018;-84
2022/10/18 04:09:17;;;;;;;71.78;39.55;;;;;;;-148.88;100.00;76118.47;4978117;28;20109;-84
2022/10/18 04:12:11;;;;;;;71.85;39.55;;;;;;;-148.88;100.00;76120.53;4976853;28;20042;-84
2022/10/18 04:14:39;;;;;;;70.32;39.25;;;;;;;-148.88;100.00;76116.44;4978578;28;20388;-83
2022/10/18 04:17:04;;;;;;;65.88;38.92;;;;;;;-148.88;100.00;76110.34;4976765;28;20493;-84
2022/10/18 04:19:29;;;;;;;74.10;41.40;;;;;;;-148.88;100.00;76110.34;4976306;28;20122;-84
2022/10/18 04:21:55;;;;;;;71.97;40.30;;;;;;;-148.88;100.00;76110.34;4976940;28;20026;-85
2022/10/18 04:24:35;;;;;;;71.60;40.03;;;;;;;-148.88;100.00;76110.34;4977220;28;20482;-83
2022/10/18 04:27:06;;;;;;;68.90;39.08;;;;;;;-148.88;100.00;76108.31;4976578;28;20023;-82
2022/10/18 04:29:34;;;;;;;68.43;39.95;;;;;;;-148.88;100.00;76112.41;4977063;28;20034;-83
2022/10/18 04:32:13;;;;;;;76.25;40.45;;;;;;;-148.88;100.00;76114.41;4977677;28;20054;-83
2022/10/18 04:34:38;;;;;;;70.72;39.88;;;;;;;-148.88;100.00;76110.34;4977485;28;20037;-83
2022/10/18 04:37:12;;;;;;;70.90;40.33;;;;;;;-148.88;100.00;76112.41;4978462;28;20030;-84
2022/10/18 04:39:45;;;;;;;71.32;39.17;;;;;;;-148.88;100.00;76114.41;4977807;28;20030;-84
2022/10/18 04:42:10;;;;;;;67.75;40.25;;;;;;;-148.88;100.00;76110.34;4979703;28;20078;-83
2022/10/18 04:44:36;;;;;;;72.25;40.58;;;;;;;-148.88;100.00;76114.41;4978792;28;20067;-83
2022/10/18 04:47:01;;;;;;;71.47;40.75;;;;;;;-148.88;100.00;76114.41;4982491;28;20496;-83
2022/10/18 04:49:27;;;;;;;70.55;40.47;;;;;;;-148.88;100.00;76114.41;4979809;28;20130;-83
2022/10/18 04:51:52;;;;;;;74.28;41.17;;;;;;;-148.88;100.00;76116.44;4979988;28;20023;-84
2022/10/18 04:54:26;;;;;;;70.25;38.47;;;;;;;-148.88;100.00;76118.47;4982986;28;20030;-83
2022/10/18 04:56:51;;;;;;;;;;;;;;;-148.88;100.00;76118.47;4980989;28;20022;-85
2022/10/18 04:59:16;;;;;;;62.35;37.13;;;;;;;-148.88;100.00;76118.47;4980032;28;19965;-83
2022/10/18 05:01:47;;;;;;;61.45;36.83;;;;;;;-148.88;100.00;76122.56;4980310;28;20031;-85
2022/10/18 05:04:25;;;;;;;62.55;35.97;;;;;;;-148.88;100.00;76118.47;4977889;28;20028;-82
2022/10/18 05:07:04;;;;;;;60.72;35.20;;;;;;;-148.88;100.00;76124.56;4989393;28;20074;-82
2022/10/18 05:09:36;;;;;;;59.15;34.33;;;;;;;-148.88;100.00;76126.59;4994356;28;20022;-81
2022/10/18 05:12:01;;;;;;;65.90;37.72;;;;;;;-148.88;100.00;76130.69;4991131;28;20121;-86
2022/10/18 05:14:39;;;;;;;71.28;39.05;;;;;;;-148.88;100.00;76122.56;4980323;28;20062;-86
2022/10/18 05:17:07;;;;;;;67.55;38.38;;;;;;;-148.88;100.00;76124.56;4976934;28;20030;-86
2022/10/18 05:19:43;;;;;;;66.38;38.47;;;;;;;-148.88;100.00;76126.59;4975973;28;20366;-85
2022/10/18 05:22:59;;;;;;;78.40;40.58;;;;;;;-148.88;100.00;76130.69;4975975;28;20035;-86
2022/10/18 05:25:10;;;;;;;75.20;40.55;;;;;;;-148.88;100.00;76134.72;4977396;28;20129;-85
2022/10/18 05:27:47;;;;;;;73.15;40.25;;;;;;;-148.88;100.00;76128.66;4976551;28;20521;-86
2022/10/18 05:30:15;;;;;;;71.78;40.10;;;;;;;-148.88;100.00;76132.72;4977120;28;20038;-87
2022/10/18 05:32:58;;;;;;;73.32;40.13;;;;;;;-148.88;100.00;76134.72;4975624;28;20019;-86
2022/10/18 05:35:36;;;;;;;78.17;43.00;;;;;;;-148.88;100.00;76138.81;4976868;28;20462;-86
2022/10/18 05:38:07;;;;;;;77.32;41.78;;;;;;;-148.88;100.00;76140.84;4975972;28;20030;-86
2022/10/18 05:40:48;;;;;;;84.95;42.63;;;;;;;-148.88;100.00;76144.91;4975929;28;20058;-85
2022/10/18 05:43:19;;;;;;;78.50;39.00;;;;;;;-148.88;100.00;76167.25;4976724;28;20018;-86
2022/10/18 05:45:53;;;;;;;70.03;39.33;;;;;;;-148.88;100.00;76159.13;4976041;28;20125;-85
2022/10/18 05:48:22;;;;;;;80.35;42.35;;;;;;;-148.88;100.00;76155.06;4975363;28;20030;-85
2022/10/18 05:50:59;;;;;;;76.00;39.10;;;;;;;-148.88;100.00;76151.00;4976775;28;20031;-85
2022/10/18 05:53:31;;;;;;;85.13;42.33;;;;;;;-148.88;100.00;76157.09;4975676;28;20033;-85
2022/10/18 05:56:07;;;;;;;89.90;42.38;;;;;;;-148.88;100.00;76159.13;4976283;28;20031;-86
2022/10/18 05:58:36;;;;;;;92.13;42.35;;;;;;;-148.88;100.00;76165.22;4976579;28;20033;-85
2022/10/18 06:01:12;;;;;;;96.57;43.10;;;;;;;-148.88;100.00;76165.22;4975808;28;20030;-86
2022/10/18 06:03:37;;;;;;;84.93;42.25;;;;;;;-148.88;100.00;76163.19;4976563;28;20557;-85
2022/10/18 06:06:05;;;;;;;81.28;42.10;;;;;;;-148.88;100.00;76169.28;4975830;28;20087;-87
2022/10/18 06:08:32;;;;;;;83.45;42.60;;;;;;;-148.88;100.00;76167.25;4975549;28;20026;-86
2022/10/18 06:10:57;;;;;;;86.13;42.30;;;;;;;-148.88;100.00;76161.16;4974860;28;20023;-86
2022/10/18 06:13:22;;;;;;;85.80;42.97;;;;;;;-148.88;100.00;76171.31;4975447;28;20102;-86
2022/10/18 06:15:48;;;;;;;80.10;42.30;;;;;;;-148.88;100.00;76171.31;4975050;28;20027;-87
2022/10/18 06:18:13;;;;;;;85.53;42.33;;;;;;;-148.88;100.00;76171.31;4975514;28;20393;-86
2022/10/18 06:20:38;;;;;;;82.45;42.40;;;;;;;-148.88;100.00;76171.31;4973652;28;20026;-86
2022/10/18 06:23:21;;;;;;;80.93;41.35;;;;;;;-148.88;100.00;76179.44;4974061;28;20062;-86
2022/10/18 06:25:46;;;;;;;85.95;42.67;;;;;;;-148.88;100.00;76179.44;4974806;28;20026;-87
2022/10/18 06:28:11;;;;;;;92.38;46.00;;;;;;;-148.88;100.00;76183.50;4974760;28;20027;-86
2022/10/18 06:30:37;;;;;;;90.68;42.38;;;;;;;-148.88;100.00;76187.56;4974954;28;20049;-86
2022/10/18 06:33:02;;;;;;;92.28;43.72;;;;;;;-148.88;100.00;76183.50;4974911;28;20027;-87
2022/10/18 06:35:28;;;;;;;98.93;44.08;;;;;;;-148.88;100.00;76191.63;4974546;28;20042;-87
2022/10/18 06:37:53;;;;;;;93.65;43.60;;;;;;;-148.88;100.00;76191.63;4976109;28;20031;-87
2022/10/18 06:40:18;;;;;;;94.07;44.58;;;;;;;-148.88;100.00;76193.66;4974259;28;20027;-86
2022/10/18 06:42:45;;;;;;;81.47;41.90;;;;;;;-148.88;100.00;76189.59;4975038;28;20022;-87
2022/10/18 06:45:11;;;;;;;91.88;42.15;;;;;;;-148.88;100.00;76195.69;4974257;28;20103;-87
2022/10/18 06:47:36;;;;;;;80.30;41.25;;;;;;;-148.88;100.00;76187.56;4973816;28;20057;-87
2022/10/18 06:50:01;;;;;;;90.53;43.78;;;;;;;-148.88;100.00;76203.81;4973986;28;20046;-87
2022/10/18 06:52:26;;;;;;;89.25;44.03;;;;;;;-148.88;100.00;76193.66;4974195;28;20098;-86
2022/10/18 06:54:52;;;;;;;90.53;42.67;;;;;;;-148.88;100.00;76187.56;4974751;28;20038;-87
2022/10/18 06:57:19;;;;;;;82.13;41.38;;;;;;;-148.88;100.00;76191.63;4974191;28;20449;-86
2022/10/18 06:59:44;;;;;;;73.43;36.95;;;;;;;-148.88;100.00;76187.56;4973177;28;20031;-87
2022/10/18 07:02:17;;;;;;;71.65;37.13;;;;;;;-148.88;100.00;76193.66;4973998;28;20106;-87
2022/10/18 07:04:42;;;;;;;79.15;38.25;;;;;;;-148.88;100.00;76195.69;4973166;28;20030;-87
2022/10/18 07:07:15;;;;;;;66.90;35.10;;;;;;;-148.88;100.00;76203.81;4973136;28;20113;-87
2022/10/18 07:09:41;;;;;;;73.17;37.17;;;;;;;-148.88;100.00;76203.81;4973586;28;20455;-87
2022/10/18 07:12:06;;;;;;;72.75;37.38;;;;;;;-148.88;100.00;76207.88;4973844;28;20478;-87
2022/10/18 07:14:31;;;;;;;68.50;34.63;;;;;;;-148.88;100.00;76205.84;4974277;28;20489;-88
2022/10/18 07:16:58;;;;;;;57.55;31.13;;;;;;;-148.88;100.00;76207.88;4973617;28;20026;-87
2022/10/18 07:19:23;;;;;;;57.28;30.05;;;;;;;-148.88;100.00;76211.94;4973539;28;20023;-87
2022/10/18 07:21:49;;;;;;;47.13;25.67;;;;;;;-148.88;100.00;76226.16;4973557;28;20034;-88
2022/10/18 07:24:15;;;;;;;52.17;26.33;;;;;;;-148.88;100.00;76228.19;4972957;28;20039;-87
2022/10/18 07:26:41;;;;;;;50.63;26.25;;;;;;;-148.88;100.00;76236.31;4973519;28;20069;-87
2022/10/18 07:29:08;;;;;;;48.15;25.42;;;;;;;-148.88;100.00;76236.31;4973003;28;20505;-88
2022/10/18 07:31:43;;;;;;;52.30;26.88;;;;;;;-148.88;100.00;76242.41;4974854;28;20061;-88
2022/10/18 07:34:11;;;;;;;49.53;24.50;;;;;;;-148.88;100.00;76248.50;4976579;28;20500;-87
2022/10/18 07:36:39;;;;;;;50.08;24.80;;;;;;;-148.88;100.00;76256.63;4977930;28;20029;-87
2022/10/18 07:39:13;;;;;;;44.50;25.50;;;;;;;-148.88;100.00;76248.50;4976178;28;20038;-86
2022/10/18 07:41:52;;;;;;;54.60;29.20;;;;;;;-148.88;100.00;76252.56;4976422;28;20027;-86
2022/10/18 07:44:18;;;;;;;55.97;28.23;;;;;;;-148.88;100.00;76250.53;4976291;28;20027;-87
2022/10/18 07:46:43;;;;;;;57.38;30.88;;;;;;;-148.88;100.00;76250.53;4976762;28;20069;-88
2022/10/18 07:49:08;;;;;;;58.63;32.15;;;;;;;-148.88;100.00;76246.47;4976541;28;20506;-87
2022/10/18 07:51:34;;;;;;;63.17;34.28;;;;;;;-148.88;100.00;76244.44;4976050;28;20053;-87
2022/10/18 07:54:01;;;;;;;60.45;32.17;;;;;;;-148.88;100.00;76244.44;4976609;28;20350;-89
2022/10/18 07:56:26;;;;;;;58.28;32.47;;;;;;;-148.88;100.00;76238.34;4976065;28;20027;-87
2022/10/18 07:59:09;;;;;;;58.63;32.75;;;;;;;-148.88;100.00;76224.13;4976118;28;20441;-87
2022/10/18 08:01:34;;;;;;;61.38;32.28;;;;;;;-148.88;100.00;76224.13;4976364;28;20090;-87
2022/10/18 08:04:00;;;;;;;60.28;31.50;;;;;;;-148.88;100.00;76228.19;4976580;28;20050;-87
2022/10/18 08:06:28;;;;;;;56.95;30.92;;;;;;;-148.88;100.00;76230.22;4976947;28;20022;-87
2022/10/18 08:08:54;;;;;;;50.53;28.88;;;;;;;-148.88;100.00;76222.09;4976091;28;20389;-87
2022/10/18 08:11:21;;;;;;;52.70;30.17;;;;;;;-148.88;100.00;76224.13;4977045;28;20033;-87
2022/10/18 08:13:47;;;;;;;52.70;30.10;;;;;;;-148.88;100.00;76228.19;4976202;28;20023;-87
2022/10/18 08:16:16;;;;;;;54.45;30.48;;;;;;;-148.88;100.00;76240.38;4976268;28;20077;-87
2022/10/18 08:18:42;;;;;;;52.25;29.42;;;;;;;-148.88;100.00;76230.22;4975788;28;20026;-88
2022/10/18 08:21:12;;;;;;;54.65;30.13;;;;;;;-148.88;100.00;76236.31;4975715;28;20027;-87
2022/10/18 08:23:38;;;;;;;54.25;29.90;;;;;;;-148.88;100.00;76236.31;4975864;28;20033;-87
2022/10/18 08:26:12;;;;;;;57.58;31.98;;;;;;;-148.88;100.00;76242.41;4976109;28;20097;-87
2022/10/18 08:28:38;;;;;;;61.53;31.88;;;;;;;-148.88;100.00;76236.31;4976489;28;20026;-87
2022/10/18 08:31:04;;;;;;;61.10;33.05;;;;;;;-148.88;100.00;76228.19;4975806;28;20027;-88
2022/10/18 08:33:39;;;;;;;67.15;34.33;;;;;;;-148.88;100.00;76222.09;4975384;28;20026;-88
2022/10/18 08:36:07;;;;;;;73.85;36.42;;;;;;;-148.88;100.00;76224.13;4976263;28;20023;-88
2022/10/18 08:38:34;;;;;;;67.35;35.80;;;;;;;-148.88;100.00;76220.06;4976275;28;20061;-87
2022/10/18 08:41:24;;;;;;;77.03;38.97;;;;;;;-148.88;100.00;76211.94;4975445;28;20026;-86
2022/10/18 08:44:38;;;;;;;77.05;38.55;;;;;;;-148.88;100.00;76211.94;4974981;28;20018;-87
2022/10/18 08:47:10;;;;;;;72.40;38.63;;;;;;;-148.88;100.00;76197.72;4967066;28;20516;-87
2022/10/18 08:49:59;;;;;;;86.65;40.85;;;;;;;-148.88;100.00;76195.69;4975324;28;20035;-87
2022/10/18 08:52:44;;;;;;;76.53;38.58;;;;;;;-148.88;100.00;76195.69;4975860;28;20411;-86
2022/10/18 08:55:23;;;;;;;88.57;41.95;;;;;;;-148.88;100.00;76185.53;4977121;28;20035;-87
2022/10/18 08:57:50;;;;;;;80.88;40.17;;;;;;;-148.88;100.00;76189.59;4976321;28;20038;-87
2022/10/18 09:00:17;;;;;;;85.38;43.55;;;;;;;-148.88;100.00;76193.66;4975133;28;20030;-86
2022/10/18 09:03:00;;;;;;;77.30;40.13;;;;;;;-148.88;100.00;76195.69;4975286;28;20030;-86
2022/10/18 09:05:32;;;;;;;87.45;42.35;;;;;;;-148.88;100.00;76203.81;4975110;28;20058;-87
2022/10/18 09:08:29;;;;;;;85.00;40.90;;;;;;;-148.88;100.00;76193.66;4975206;28;20065;-87
2022/10/18 09:11:13;;;;;;;87.97;41.08;;;;;;;-148.88;100.00;76171.31;4975687;28;20054;-87
2022/10/18 09:14:02;;;;;;;78.63;38.72;;;;;;;-148.88;100.00;76181.47;4975229;28;20030;-87
2022/10/18 09:16:43;;;;;;;67.20;35.10;;;;;;;-148.88;100.00;76187.56;4974897;28;20407;-86
2022/10/18 09:19:34;;;;;;;64.38;32.83;;;;;;;-148.88;100.00;76195.69;4974712;28;20037;-86
2022/10/18 09:22:16;;;;;;;67.18;34.33;;;;;;;-148.88;100.00;76187.56;4974810;28;20034;-87
2022/10/18 09:24:59;;;;;;;60.15;33.90;;;;;;;-148.88;100.00;76179.44;4974870;28;20030;-87
2022/10/18 09:27:41;;;;;;;61.05;33.95;;;;;;;-148.88;100.00;76155.06;4975547;28;20061;-86
2022/10/18 09:30:26;;;;;;;58.50;32.20;;;;;;;-148.88;100.00;76148.97;4975069;28;20440;-86
2022/10/18 09:33:24;;;;;;;50.10;27.02;;;;;;;-148.88;100.00;76171.31;4975173;28;20034;-87
2022/10/18 09:35:59;;;;;;;44.45;25.33;;;;;;;-148.88;100.00;76171.31;4974234;28;20073;-86
2022/10/18 09:38:30;;;;;;;42.28;25.50;;;;;;;-148.88;100.00;76167.25;4974775;28;20034;-87
2022/10/18 09:41:04;;;;;;;51.20;28.00;;;;;;;-148.88;100.00;76187.56;4974607;28;20026;-86
2022/10/18 09:43:51;;;;;;;48.03;26.38;;;;;;;-148.88;100.00;76193.66;4974669;28;20113;-85
2022/10/18 09:46:20;;;;;;;47.85;27.73;;;;;;;-148.88;100.00;76187.56;4974566;28;20477;-86
2022/10/18 09:48:51;;;;;;;56.25;29.35;;;;;;;-148.88;100.00;76185.53;4974218;28;20093;-86
2022/10/18 09:51:24;;;;;;;50.90;28.38;;;;;;;-148.88;100.00;76203.81;4974321;28;20080;-87
2022/10/18 09:53:58;;;;;;;51.58;29.38;;;;;;;-148.88;100.00;76216.00;4974011;28;20034;-86
2022/10/18 09:56:31;;;;;;;45.00;26.42;;;;;;;-148.88;100.00;76201.78;4974115;28;20031;-86
2022/10/18 09:58:57;;;;;;;50.05;28.83;;;;;;;-148.88;100.00;76195.69;4974580;28;20500;-86
2022/10/18 10:01:28;;;;;;;48.35;28.67;;;;;;;-148.88;100.00;76175.38;4974554;28;20031;-86
2022/10/18 10:04:02;;;;;;;46.90;26.90;;;;;;;-148.88;100.00;76151.00;4973990;28;20532;-87
2022/10/18 10:06:37;;;;;;;43.90;25.02;;;;;;;-148.88;100.00;76132.72;4974702;28;20061;-86
2022/10/18 10:09:39;;;;;;;43.13;24.35;;;;;;;-148.88;100.00;76122.56;4975465;28;20038;-87
2022/10/18 10:15:25;;;;;;;39.85;22.02;;;;;;;-148.88;100.00;76134.72;4983832;28;20383;-86
2022/10/18 10:18:30;;;;;;;32.42;17.58;;;;;;;-148.88;100.00;76140.84;4974844;28;20445;-89
2022/10/18 10:21:06;;;;;;;35.80;16.08;;;;;;;-148.88;100.00;76148.97;4972333;28;20039;-88
2022/10/18 10:23:50;;;;;;;32.63;14.60;;;;;;;-148.88;100.00;76159.13;4993816;23;20047;-77
2022/10/18 10:26:29;;;;;;;33.55;15.63;;;;;;;-148.88;100.00;76153.03;4973142;28;20058;-77
2022/10/18 10:28:54;;;;;;;32.58;14.75;;;;;;;-148.88;100.00;76155.06;4974234;28;20027;-77
2022/10/18 10:31:23;;;;;;;26.83;13.25;;;;;;;-148.88;100.00;76163.19;4973939;28;20509;-77
2022/10/18 10:33:58;;;;;;;26.38;13.57;;;;;;;-148.88;100.00;76175.38;4972597;28;20022;-77
2022/10/18 10:36:23;;;;;;;31.17;15.90;;;;;;;-148.88;100.00;76175.38;4972782;28;20034;-77
2022/10/18 10:39:03;;;;;;;30.75;16.70;;;;;;;-148.88;100.00;76183.50;4973893;28;20394;-77
2022/10/18 10:41:29;;;;;;;29.13;15.80;;;;;;;-148.88;100.00;76173.34;4973951;28;20524;-77
2022/10/18 10:43:55;;;;;;;31.40;16.63;;;;;;;-148.88;100.00;76157.09;4973835;28;20533;-77
2022/10/18 10:46:22;;;;;;;31.02;17.80;;;;;;;-148.88;100.00;76136.78;4973747;28;20030;-77
2022/10/18 10:48:54;;;;;;;26.02;14.98;;;;;;;-148.88;100.00;76159.13;4972753;28;20386;-77
2022/10/18 10:51:32;;;;;;;30.63;16.45;;;;;;;-148.88;100.00;76171.31;4973264;28;20043;-77
2022/10/18 10:54:04;;;;;;;28.65;14.57;;;;;;;-148.88;100.00;76167.25;4972524;28;20121;-77
2022/10/18 10:56:34;;;;;;;26.92;14.50;;;;;;;-148.88;100.00;76177.41;4972918;28;20386;-77
2022/10/18 10:59:08;;;;;;;28.02;13.50;;;;;;;-148.88;100.00;76179.44;4973973;28;20023;-77
2022/10/18 11:01:34;;;;;;;23.63;12.10;;;;;;;-148.88;100.00;76151.00;4973825;28;20094;-77
2022/10/18 11:04:20;;;;;;;24.95;12.80;;;;;;;-148.88;98.06;76130.69;4973856;28;20507;-77
2022/10/18 11:06:59;;;;;;;24.35;11.52;;;;;;;-148.88;94.90;76094.09;4976244;28;20043;-77
2022/10/18 11:09:37;;;;;;;21.15;10.77;;;;;;;-148.88;93.09;76051.44;4978058;28;20030;-77
2022/10/18 11:12:23;;;;;;;23.95;12.00;;;;;;;-148.88;94.85;76016.91;4976599;28;20047;-77
2022/10/18 11:15:09;;;;;;;20.17;9.18;;;;;;;-148.88;86.23;75988.47;4978071;28;20039;-77